Time;durP1;ratioP1;P1;durP2;ratioP2;P2;SDS_P1;SDS_P2;PMS_P1;PMS_P2;Temp;Humidity;BMP_temperature;BMP_pressure;BME280_temperature;BME280_humidity;BME280_pressure;Samples;Min_cycle;Max_cycle;Signal;HPM_P1;HPM_P2
2023/04/28 00:00:28;;;;;;;3.13;2.92;;;7.10;99.90;;;;;;6159388;23;20013;-79
2023/04/28 00:02:53;;;;;;;3.00;2.80;;;7.10;99.90;;;;;;6159384;23;20017;-79
2023/04/28 00:05:21;;;;;;;3.20;3.00;;;7.10;99.90;;;;;;6184182;23;20009;-79
2023/04/28 00:07:47;;;;;;;3.20;2.90;;;7.10;99.90;;;;;;6186120;23;20013;-79
2023/04/28 00:10:13;;;;;;;3.30;3.10;;;7.10;99.90;;;;;;6184213;23;20048;-79
2023/04/28 00:12:38;;;;;;;3.33;2.97;;;7.10;99.90;;;;;;6185629;23;20009;-79
2023/04/28 00:15:04;;;;;;;3.30;3.00;;;7.00;99.90;;;;;;6184194;23;20061;-80
2023/04/28 00:17:30;;;;;;;3.00;2.80;;;7.00;99.90;;;;;;6185510;23;20009;-79
2023/04/28 00:19:56;;;;;;;3.88;3.40;;;7.00;99.90;;;;;;6185488;23;20390;-78
2023/04/28 00:22:22;;;;;;;3.35;3.00;;;7.00;99.90;;;;;;6185953;23;20017;-79
2023/04/28 00:24:47;;;;;;;3.22;2.97;;;7.00;99.90;;;;;;6159644;23;20491;-78
2023/04/28 00:27:13;;;;;;;3.60;3.30;;;7.00;99.90;;;;;;6134804;23;20044;-78
2023/04/28 00:29:39;;;;;;;3.42;3.13;;;7.00;99.90;;;;;;6134769;23;20016;-78
2023/04/28 00:32:06;;;;;;;3.17;2.97;;;7.00;99.90;;;;;;6159688;23;20457;-78
2023/04/28 00:34:32;;;;;;;3.20;3.00;;;7.00;99.90;;;;;;6185950;23;20024;-78
2023/04/28 00:36:58;;;;;;;3.63;3.33;;;7.00;99.90;;;;;;6159130;23;20009;-79
2023/04/28 00:39:25;;;;;;;3.20;2.90;;;6.90;99.90;;;;;;6159191;23;20107;-79
2023/04/28 00:41:51;;;;;;;3.35;3.05;;;6.90;99.90;;;;;;6159006;23;20013;-79
2023/04/28 00:44:16;;;;;;;3.55;3.25;;;6.90;99.90;;;;;;6159211;23;20067;-79
2023/04/28 00:46:42;;;;;;;3.20;3.00;;;6.90;99.90;;;;;;6159296;23;20435;-79
2023/04/28 00:49:09;;;;;;;3.67;3.38;;;6.90;99.90;;;;;;6159322;23;20085;-79
2023/04/28 00:51:35;;;;;;;3.30;3.10;;;7.00;99.90;;;;;;6185950;23;20009;-78
2023/04/28 00:54:01;;;;;;;3.47;3.17;;;6.90;99.90;;;;;;6134765;23;20437;-78
2023/04/28 00:56:30;;;;;;;3.60;3.30;;;6.90;99.90;;;;;;6187718;23;20009;-79
2023/04/28 00:58:56;;;;;;;3.72;3.42;;;6.90;99.90;;;;;;6161430;23;20026;-78
2023/04/28 01:01:22;;;;;;;3.25;2.95;;;6.90;99.90;;;;;;6136182;23;20446;-79
2023/04/28 01:03:47;;;;;;;3.90;3.60;;;6.90;99.90;;;;;;6136198;23;20009;-79
2023/04/28 01:06:15;;;;;;;3.72;3.42;;;6.80;99.90;;;;;;6187521;23;20013;-79
2023/04/28 01:08:41;;;;;;;3.90;3.60;;;6.80;99.90;;;;;;6160969;23;20450;-79
2023/04/28 01:11:09;;;;;;;4.13;3.80;;;6.80;99.90;;;;;;6187089;23;20307;-79
2023/04/28 01:13:35;;;;;;;4.25;3.95;;;6.80;99.90;;;;;;6187456;23;20013;-79
2023/04/28 01:16:00;;;;;;;3.90;3.60;;;6.80;99.90;;;;;;6136206;23;20052;-79
2023/04/28 01:18:26;;;;;;;4.32;3.92;;;6.80;99.90;;;;;;6187451;23;20017;-79
2023/04/28 01:20:52;;;;;;;4.70;4.30;;;6.90;99.90;;;;;;6173006;23;20446;-79
2023/04/28 01:23:18;;;;;;;4.47;4.07;;;6.90;99.90;;;;;;6160769;23;20442;-79
2023/04/28 01:25:43;;;;;;;4.70;4.32;;;6.90;99.90;;;;;;6185533;23;20017;-79
2023/04/28 01:28:10;;;;;;;4.53;4.22;;;6.80;99.90;;;;;;6185500;23;20350;-79
2023/04/28 01:30:35;;;;;;;4.03;3.72;;;6.80;99.90;;;;;;6185415;23;20013;-78
2023/04/28 01:33:02;;;;;;;4.35;4.05;;;6.90;99.90;;;;;;6185497;23;20052;-79
2023/04/28 01:35:28;;;;;;;4.32;4.03;;;6.90;99.90;;;;;;6160770;23;20013;-79
2023/04/28 01:37:53;;;;;;;4.85;4.45;;;7.00;99.90;;;;;;6185596;23;20017;-79
2023/04/28 01:40:19;;;;;;;4.50;4.20;;;7.10;99.90;;;;;;6187295;23;20013;-79
2023/04/28 01:42:45;;;;;;;5.03;4.63;;;7.00;99.90;;;;;;6185385;23;20316;-79
2023/04/28 01:45:11;;;;;;;4.70;4.30;;;7.00;99.90;;;;;;6160537;23;20016;-79
2023/04/28 01:47:37;;;;;;;4.70;4.30;;;7.00;99.90;;;;;;6160517;23;20013;-79
2023/04/28 01:50:02;;;;;;;5.40;4.90;;;7.00;99.90;;;;;;6160538;23;20096;-78
2023/04/28 01:52:28;;;;;;;4.70;4.40;;;7.00;99.90;;;;;;6185248;23;20438;-79
2023/04/28 01:54:54;;;;;;;5.15;4.72;;;7.00;99.90;;;;;;6160549;23;20513;-78
2023/04/28 01:57:19;;;;;;;5.07;4.57;;;7.00;99.90;;;;;;6160396;23;20017;-79
2023/04/28 01:59:45;;;;;;;5.00;4.60;;;7.00;99.90;;;;;;6185250;23;20012;-79
2023/04/28 02:02:11;;;;;;;4.50;4.10;;;7.00;99.90;;;;;;6185128;23;20017;-79
2023/04/28 02:04:37;;;;;;;4.88;4.57;;;7.10;99.90;;;;;;6160383;23;20379;-79
2023/04/28 02:07:03;;;;;;;4.63;4.32;;;7.00;99.90;;;;;;6184945;23;20013;-79
2023/04/28 02:09:28;;;;;;;4.82;4.53;;;7.00;99.90;;;;;;6185146;23;20502;-78
2023/04/28 02:11:54;;;;;;;5.03;4.63;;;7.10;99.90;;;;;;6185189;23;20009;-79
2023/04/28 02:14:20;;;;;;;5.15;4.75;;;7.00;99.90;;;;;;6185174;23;20017;-79
2023/04/28 02:16:46;;;;;;;4.88;4.47;;;6.90;99.90;;;;;;6160260;23;20013;-79
2023/04/28 02:19:11;;;;;;;5.03;4.72;;;6.90;99.90;;;;;;6160359;23;20008;-79
2023/04/28 02:21:37;;;;;;;4.78;4.38;;;6.90;99.90;;;;;;6186223;23;20017;-79
2023/04/28 02:24:03;;;;;;;5.65;5.25;;;7.00;99.90;;;;;;6160254;23;20435;-79
2023/04/28 02:26:29;;;;;;;5.30;4.90;;;6.90;99.90;;;;;;6186869;23;20087;-79
2023/04/28 02:28:54;;;;;;;5.40;5.00;;;7.00;99.90;;;;;;6160127;23;20009;-79
2023/04/28 02:31:20;;;;;;;5.40;5.00;;;6.90;99.90;;;;;;6160185;23;20028;-79
2023/04/28 02:33:46;;;;;;;5.47;5.07;;;6.90;99.90;;;;;;6160116;23;20015;-79
2023/04/28 02:36:12;;;;;;;5.43;4.90;;;6.80;99.90;;;;;;6160067;23;20009;-79
2023/04/28 02:38:40;;;;;;;5.43;5.03;;;6.80;99.90;;;;;;6186734;23;20557;-79
2023/04/28 02:41:08;;;;;;;6.03;5.50;;;6.70;99.90;;;;;;6159932;23;20017;-79
2023/04/28 02:43:35;;;;;;;5.85;5.35;;;6.70;99.90;;;;;;6159997;23;20020;-79
2023/04/28 02:46:02;;;;;;;6.30;5.80;;;6.60;99.90;;;;;;6186770;23;20009;-78
2023/04/28 02:48:27;;;;;;;5.35;4.95;;;6.70;99.90;;;;;;6159982;23;20012;-79
2023/04/28 02:50:53;;;;;;;5.78;5.38;;;6.60;99.90;;;;;;6186334;23;20521;-78
2023/04/28 02:53:19;;;;;;;6.22;5.72;;;6.50;99.90;;;;;;6160030;23;20043;-78
2023/04/28 02:55:45;;;;;;;6.25;5.75;;;6.50;99.90;;;;;;6159966;23;20017;-79
2023/04/28 02:58:11;;;;;;;6.20;5.70;;;6.50;99.90;;;;;;6159824;23;20016;-79
2023/04/28 03:00:37;;;;;;;5.65;5.20;;;6.50;99.90;;;;;;6159746;23;20036;-79
2023/04/28 03:03:02;;;;;;;5.82;5.43;;;6.50;99.90;;;;;;6186600;23;20009;-79
2023/04/28 03:05:28;;;;;;;6.40;5.90;;;6.40;99.90;;;;;;6159880;23;20040;-79
2023/04/28 03:07:54;;;;;;;5.75;5.35;;;6.40;99.90;;;;;;6135117;23;20009;-79
2023/04/28 03:10:20;;;;;;;6.28;5.70;;;6.30;99.90;;;;;;6159721;23;20036;-79
2023/04/28 03:12:45;;;;;;;5.80;5.40;;;6.40;99.90;;;;;;6135083;23;20057;-79
2023/04/28 03:15:11;;;;;;;6.20;5.70;;;6.40;99.90;;;;;;6159799;23;20323;-79
2023/04/28 03:17:40;;;;;;;5.90;5.50;;;6.40;99.90;;;;;;6159475;23;20469;-79
2023/04/28 03:20:07;;;;;;;6.20;5.80;;;6.40;99.90;;;;;;6185950;23;20017;-79
2023/04/28 03:22:33;;;;;;;6.32;5.82;;;6.40;99.90;;;;;;6159564;23;20024;-79
2023/04/28 03:24:59;;;;;;;6.90;6.32;;;6.40;99.90;;;;;;6135123;23;20009;-79
2023/04/28 03:27:25;;;;;;;6.50;6.00;;;6.30;99.90;;;;;;6135389;23;20446;-79
2023/04/28 03:29:50;;;;;;;6.38;5.88;;;6.20;99.90;;;;;;6159619;23;20017;-79
2023/04/28 03:32:16;;;;;;;6.78;6.28;;;6.20;99.90;;;;;;6159603;23;20035;-79
2023/04/28 03:34:41;;;;;;;6.47;6.00;;;6.10;99.90;;;;;;6159719;23;20365;-79
2023/04/28 03:37:07;;;;;;;6.75;6.25;;;6.20;99.90;;;;;;6186352;23;20039;-79
2023/04/28 03:39:33;;;;;;;7.30;6.80;;;6.00;99.90;;;;;;6159733;23;20009;-79
2023/04/28 03:41:58;;;;;;;7.05;6.55;;;6.10;99.90;;;;;;6159437;23;20144;-79
2023/04/28 03:44:24;;;;;;;7.35;6.85;;;6.10;99.90;;;;;;6185838;23;20017;-79
2023/04/28 03:46:49;;;;;;;6.80;6.28;;;6.10;99.90;;;;;;6159629;23;20009;-79
2023/04/28 03:49:15;;;;;;;6.22;5.82;;;6.10;99.90;;;;;;6159619;23;20024;-79
2023/04/28 03:51:41;;;;;;;6.80;6.30;;;6.10;99.90;;;;;;6186039;23;20017;-79
2023/04/28 03:54:06;;;;;;;6.53;6.03;;;6.10;99.90;;;;;;6186103;23;20024;-79
2023/04/28 03:56:33;;;;;;;6.90;6.40;;;6.10;99.90;;;;;;6186178;23;20009;-79
2023/04/28 03:58:58;;;;;;;6.78;6.28;;;6.10;99.90;;;;;;6186077;23;20040;-79
2023/04/28 04:01:24;;;;;;;7.00;6.40;;;6.10;99.90;;;;;;6186027;23;20017;-79
2023/04/28 04:03:50;;;;;;;6.95;6.45;;;6.10;99.90;;;;;;6185929;23;20084;-79
2023/04/28 04:06:16;;;;;;;6.60;6.10;;;6.20;99.90;;;;;;6185997;23;20092;-79
2023/04/28 04:08:42;;;;;;;7.00;6.50;;;6.20;99.90;;;;;;6134793;23;20013;-79
2023/04/28 04:11:08;;;;;;;6.30;5.80;;;6.20;99.90;;;;;;6186065;23;20013;-79
2023/04/28 04:13:33;;;;;;;6.60;6.10;;;6.20;99.90;;;;;;6159441;23;20052;-79
2023/04/28 04:15:59;;;;;;;6.57;6.07;;;6.20;99.90;;;;;;6159337;23;20529;-79
2023/04/28 04:18:26;;;;;;;6.90;6.30;;;6.20;99.90;;;;;;6159304;23;20021;-79
2023/04/28 04:20:56;;;;;;;6.78;6.28;;;6.20;99.90;;;;;;6146634;23;20036;-78
2023/04/28 04:23:22;;;;;;;6.70;6.10;;;6.30;99.90;;;;;;6184084;23;20013;-79
2023/04/28 04:25:48;;;;;;;6.75;6.25;;;6.20;99.90;;;;;;6184170;23;20344;-78
2023/04/28 04:28:14;;;;;;;6.55;6.05;;;6.30;99.90;;;;;;6184094;23;20454;-78
2023/04/28 04:30:40;;;;;;;6.57;6.07;;;6.30;99.90;;;;;;6185832;23;20019;-78
2023/04/28 04:33:05;;;;;;;7.03;6.53;;;6.40;99.90;;;;;;6187590;23;20048;-78
2023/04/28 04:35:31;;;;;;;7.47;6.80;;;6.40;99.90;;;;;;6186433;23;20013;-78
2023/04/28 04:37:57;;;;;;;6.88;6.38;;;6.40;99.90;;;;;;6186147;23;20071;-79
2023/04/28 04:40:23;;;;;;;6.43;6.00;;;6.50;99.90;;;;;;6161046;23;20020;-79
2023/04/28 04:42:48;;;;;;;6.75;6.25;;;6.40;99.90;;;;;;6187889;23;20009;-79
2023/04/28 04:45:14;;;;;;;6.78;6.28;;;6.40;99.90;;;;;;6186372;23;20032;-79
2023/04/28 04:47:40;;;;;;;7.03;6.53;;;6.40;99.90;;;;;;6186046;23;20016;-79
2023/04/28 04:50:07;;;;;;;7.15;6.45;;;6.40;99.90;;;;;;6187403;23;20362;-79
2023/04/28 04:52:32;;;;;;;6.97;6.45;;;6.40;99.90;;;;;;6187496;23;20017;-79
2023/04/28 04:54:58;;;;;;;7.20;6.65;;;6.40;99.90;;;;;;6187448;23;20017;-79
2023/04/28 04:57:24;;;;;;;6.95;6.45;;;6.50;99.90;;;;;;6187874;23;20024;-79
2023/04/28 04:59:50;;;;;;;7.18;6.57;;;6.40;99.90;;;;;;6187778;23;20009;-79
2023/04/28 05:02:16;;;;;;;7.00;6.50;;;6.50;99.90;;;;;;6187534;23;20023;-79
2023/04/28 05:04:41;;;;;;;7.10;6.50;;;6.60;99.90;;;;;;6187739;23;20391;-78
2023/04/28 05:07:07;;;;;;;6.90;6.40;;;6.50;99.90;;;;;;6187672;23;20005;-78
2023/04/28 05:09:33;;;;;;;6.95;6.35;;;6.50;99.90;;;;;;6185814;23;20012;-79
2023/04/28 05:11:58;;;;;;;7.32;6.65;;;6.50;99.90;;;;;;6185659;23;20021;-78
2023/04/28 05:14:24;;;;;;;6.45;5.88;;;6.50;99.90;;;;;;6185506;23;20013;-77
2023/04/28 05:16:50;;;;;;;6.47;5.97;;;6.60;99.90;;;;;;6185678;23;20012;-78
2023/04/28 05:19:15;;;;;;;6.40;6.00;;;6.60;99.90;;;;;;6160805;23;20021;-78
2023/04/28 05:21:41;;;;;;;8.00;5.88;;;6.60;99.90;;;;;;6160447;23;20454;-78
2023/04/28 05:24:07;;;;;;;5.88;5.38;;;6.60;99.90;;;;;;6185531;23;20009;-79
2023/04/28 05:26:32;;;;;;;6.28;5.70;;;6.70;99.90;;;;;;6185590;23;20040;-79
2023/04/28 05:28:58;;;;;;;7.25;6.60;;;6.70;99.90;;;;;;6185591;23;20020;-78
2023/04/28 05:31:24;;;;;;;6.05;5.50;;;6.70;99.90;;;;;;6187350;23;20013;-78
2023/04/28 05:33:50;;;;;;;6.15;5.65;;;6.70;99.90;;;;;;6187391;23;20338;-79
2023/04/28 05:36:16;;;;;;;6.50;5.97;;;6.80;99.90;;;;;;6160667;23;20067;-79
2023/04/28 05:38:42;;;;;;;6.38;5.97;;;6.80;99.90;;;;;;6185443;23;20017;-78
2023/04/28 05:41:08;;;;;;;6.13;5.63;;;6.90;99.90;;;;;;6186651;23;20021;-80
2023/04/28 05:43:34;;;;;;;6.05;5.55;;;6.90;99.90;;;;;;6160402;23;20020;-81
2023/04/28 05:46:00;;;;;;;5.95;5.45;;;6.90;99.90;;;;;;6185462;23;20339;-79
2023/04/28 05:48:26;;;;;;;6.00;5.60;;;7.00;99.90;;;;;;6185172;23;20013;-79
2023/04/28 05:50:51;;;;;;;6.10;5.50;;;7.10;99.90;;;;;;6186589;23;20024;-80
2023/04/28 05:53:17;;;;;;;5.93;5.45;;;7.20;99.90;;;;;;6185456;23;20012;-73
2023/04/28 05:55:43;;;;;;;6.00;5.50;;;7.20;99.90;;;;;;6185320;23;20095;-80
2023/04/28 05:58:08;;;;;;;5.72;5.25;;;7.20;99.90;;;;;;6160515;23;20024;-81
2023/04/28 06:00:34;;;;;;;5.90;5.50;;;7.30;99.90;;;;;;6186564;23;20025;-80
2023/04/28 06:03:00;;;;;;;6.47;5.82;;;7.30;99.90;;;;;;6160330;23;20047;-80
2023/04/28 06:05:26;;;;;;;6.05;5.57;;;7.30;99.90;;;;;;6187143;23;20013;-79
2023/04/28 06:07:53;;;;;;;5.60;5.20;;;7.40;99.90;;;;;;6160688;23;20009;-82
2023/04/28 06:10:19;;;;;;;5.00;4.70;;;7.40;99.90;;;;;;6160339;23;20085;-81
2023/04/28 06:12:45;;;;;;;5.20;4.80;;;7.40;99.90;;;;;;6185094;23;20016;-83
2023/04/28 06:15:10;;;;;;;5.88;5.47;;;7.40;99.90;;;;;;6186965;23;20084;-82
2023/04/28 06:17:37;;;;;;;5.57;5.18;;;7.40;99.90;;;;;;6160333;23;20339;-80
2023/04/28 06:20:04;;;;;;;5.65;5.15;;;7.50;99.90;;;;;;6184918;23;20017;-82
2023/04/28 06:22:29;;;;;;;5.28;4.88;;;7.50;99.90;;;;;;6185048;23;20024;-79
2023/04/28 06:24:55;;;;;;;5.13;4.72;;;7.50;99.90;;;;;;6160281;23;20017;-79
2023/04/28 06:27:21;;;;;;;5.45;4.97;;;7.50;99.90;;;;;;6160301;23;20020;-79
2023/04/28 06:29:46;;;;;;;5.13;4.75;;;7.50;99.90;;;;;;6160217;23;20016;-79
2023/04/28 06:32:12;;;;;;;5.10;4.70;;;7.50;99.90;;;;;;6160182;23;20143;-77
2023/04/28 06:34:38;;;;;;;5.40;4.90;;;7.60;99.90;;;;;;6185359;23;20023;-77
2023/04/28 06:37:03;;;;;;;5.43;4.93;;;7.60;99.90;;;;;;6186895;23;20017;-79
2023/04/28 06:39:29;;;;;;;5.20;4.80;;;7.60;99.90;;;;;;6184994;23;20016;-78
2023/04/28 06:41:55;;;;;;;5.10;4.70;;;7.60;99.90;;;;;;6186618;23;20434;-78
2023/04/28 06:44:21;;;;;;;4.63;4.22;;;7.60;99.90;;;;;;6160389;23;20029;-79
2023/04/28 06:46:46;;;;;;;5.18;4.70;;;7.60;99.90;;;;;;6186879;23;20009;-80
2023/04/28 06:49:12;;;;;;;5.53;5.03;;;7.60;99.90;;;;;;6186662;23;20013;-79
2023/04/28 06:51:37;;;;;;;5.20;4.80;;;7.60;99.90;;;;;;6159903;23;20024;-73
2023/04/28 06:54:03;;;;;;;4.63;4.32;;;7.60;99.90;;;;;;6184637;23;20075;-77
2023/04/28 06:56:29;;;;;;;5.35;4.95;;;7.70;99.90;;;;;;6186696;23;20012;-82
2023/04/28 06:58:56;;;;;;;4.82;4.43;;;7.70;99.90;;;;;;6159918;23;20068;-81
2023/04/28 07:01:22;;;;;;;4.85;4.45;;;7.70;99.90;;;;;;6184482;23;20023;-81
2023/04/28 07:03:47;;;;;;;5.03;4.53;;;7.70;99.90;;;;;;6159743;23;20087;-81
2023/04/28 07:06:13;;;;;;;5.38;4.97;;;7.80;99.90;;;;;;6159779;23;20009;-81
2023/04/28 07:08:40;;;;;;;5.32;4.93;;;7.80;99.90;;;;;;6159950;23;20013;-81
2023/04/28 07:11:06;;;;;;;4.88;4.50;;;7.90;99.90;;;;;;6185009;23;20021;-81
2023/04/28 07:13:32;;;;;;;4.93;4.57;;;7.90;99.90;;;;;;6159796;23;20013;-81
2023/04/28 07:15:58;;;;;;;5.38;4.97;;;7.90;99.90;;;;;;6159546;23;20017;-81
2023/04/28 07:18:23;;;;;;;5.32;4.93;;;8.00;99.90;;;;;;6186392;23;20028;-80
2023/04/28 07:20:50;;;;;;;4.72;4.43;;;8.00;99.90;;;;;;6159284;23;20017;-81
2023/04/28 07:23:16;;;;;;;4.57;4.28;;;8.00;99.90;;;;;;6159692;23;20021;-80
2023/04/28 07:25:42;;;;;;;5.28;4.88;;;8.10;99.90;;;;;;6160960;23;20018;-81
2023/04/28 07:28:08;;;;;;;5.00;4.60;;;8.10;99.90;;;;;;6159610;23;20016;-80
2023/04/28 07:30:34;;;;;;;4.88;4.55;;;8.20;99.90;;;;;;6184645;23;20013;-80
2023/04/28 07:33:01;;;;;;;4.47;4.07;;;8.20;99.90;;;;;;6159569;23;20079;-83
2023/04/28 07:35:27;;;;;;;4.97;4.50;;;8.20;99.90;;;;;;6185911;23;20442;-74
2023/04/28 07:37:53;;;;;;;5.22;4.75;;;8.30;99.90;;;;;;6184256;23;20438;-74
2023/04/28 07:40:20;;;;;;;5.15;4.75;;;8.30;99.90;;;;;;6184311;23;20466;-74
2023/04/28 07:42:46;;;;;;;4.88;4.47;;;8.30;99.90;;;;;;6184342;23;20009;-75
2023/04/28 07:45:13;;;;;;;4.68;4.28;;;8.40;99.90;;;;;;6184277;23;20092;-78
2023/04/28 07:47:38;;;;;;;4.90;4.50;;;8.40;99.90;;;;;;6184242;23;20005;-78
2023/04/28 07:50:05;;;;;;;4.70;4.30;;;8.50;99.90;;;;;;6184810;23;20374;-78
2023/04/28 07:52:34;;;;;;;3.95;3.65;;;8.50;99.90;;;;;;6186138;23;20013;-78
2023/04/28 07:55:01;;;;;;;4.47;4.07;;;8.50;99.90;;;;;;6184287;23;20013;-72
2023/04/28 07:57:28;;;;;;;4.18;3.83;;;8.60;99.90;;;;;;6184657;23;20013;-77
2023/04/28 07:59:53;;;;;;;4.90;4.32;;;8.60;99.90;;;;;;6184395;23;20382;-77
2023/04/28 08:02:19;;;;;;;4.95;4.00;;;8.70;99.90;;;;;;6185920;23;20068;-77
2023/04/28 08:04:45;;;;;;;4.25;3.85;;;8.70;99.90;;;;;;6183714;23;20458;-77
2023/04/28 08:07:12;;;;;;;4.57;3.75;;;8.80;99.90;;;;;;6183772;23;20009;-85
2023/04/28 08:09:39;;;;;;;3.90;3.60;;;9.00;99.90;;;;;;6184202;23;20462;-75
2023/04/28 08:12:05;;;;;;;4.22;3.78;;;9.00;99.90;;;;;;6185118;23;20008;-72
2023/04/28 08:14:31;;;;;;;3.60;3.30;;;9.10;99.90;;;;;;6159278;23;20044;-74
2023/04/28 08:16:57;;;;;;;3.42;3.13;;;9.20;99.90;;;;;;6184500;23;20064;-74
2023/04/28 08:19:23;;;;;;;3.55;3.25;;;9.20;99.90;;;;;;6184481;23;20009;-79
2023/04/28 08:21:48;;;;;;;3.90;3.35;;;9.30;99.90;;;;;;6185359;23;20093;-79
2023/04/28 08:24:14;;;;;;;3.83;3.50;;;9.40;99.90;;;;;;6159181;23;20052;-80
2023/04/28 08:26:40;;;;;;;3.65;3.35;;;9.40;99.90;;;;;;6159330;23;20009;-80
2023/04/28 08:29:05;;;;;;;3.60;3.30;;;9.50;99.90;;;;;;6134694;23;20469;-79
2023/04/28 08:31:31;;;;;;;3.58;3.33;;;9.50;99.90;;;;;;6159325;23;20016;-79
2023/04/28 08:33:57;;;;;;;3.55;3.25;;;9.60;99.90;;;;;;6159186;23;20017;-80
2023/04/28 08:36:25;;;;;;;3.45;3.17;;;9.70;99.90;;;;;;6185878;23;20055;-79
2023/04/28 08:38:51;;;;;;;3.38;3.10;;;9.80;99.90;;;;;;6185915;23;20009;-79
2023/04/28 08:41:18;;;;;;;3.75;3.33;;;9.90;99.90;;;;;;6159405;23;20024;-80
2023/04/28 08:43:44;;;;;;;3.20;2.90;;;10.00;99.90;;;;;;6159053;23;20485;-80
2023/04/28 08:46:10;;;;;;;3.65;3.35;;;10.10;99.90;;;;;;6185789;23;20055;-80
2023/04/28 08:48:41;;;;;;;3.67;2.97;;;10.20;99.90;;;;;;6159715;23;20013;-80
2023/04/28 08:51:07;;;;;;;3.20;3.00;;;10.30;99.90;;;;;;6159159;23;20013;-79
2023/04/28 08:53:37;;;;;;;4.00;3.70;;;10.40;99.90;;;;;;6159555;23;20483;-80
2023/04/28 08:56:08;;;;;;;2.90;2.70;;;10.50;99.90;;;;;;6159089;23;20083;-80
2023/04/28 08:58:36;;;;;;;2.95;2.75;;;10.40;99.90;;;;;;6159089;23;20020;-78
2023/04/28 09:01:05;;;;;;;3.45;3.15;;;10.50;99.90;;;;;;6134507;23;20013;-79
2023/04/28 09:03:33;;;;;;;3.58;3.30;;;10.50;99.90;;;;;;6135151;23;20013;-78
2023/04/28 09:06:01;;;;;;;3.22;2.92;;;10.40;99.90;;;;;;6185773;23;20017;-79
2023/04/28 09:08:27;;;;;;;3.63;3.33;;;10.40;99.90;;;;;;6159566;23;20083;-78
2023/04/28 09:11:09;;;;;;;3.50;3.28;;;10.40;99.90;;;;;;6185711;23;20315;-79
2023/04/28 09:13:35;;;;;;;3.58;3.17;;;10.40;99.90;;;;;;6134564;23;20013;-79
2023/04/28 09:16:02;;;;;;;3.53;3.22;;;10.30;99.90;;;;;;6185765;23;20017;-79
2023/04/28 09:18:32;;;;;;;3.58;3.28;;;10.40;99.90;;;;;;6160826;23;20339;-79
2023/04/28 09:21:06;;;;;;;3.70;3.40;;;10.50;99.90;;;;;;6173800;23;20021;-70
2023/04/28 09:23:35;;;;;;;3.35;3.05;;;10.60;99.90;;;;;;6187083;23;20032;-81
2023/04/28 09:26:06;;;;;;;3.88;3.58;;;10.70;99.90;;;;;;6185589;23;20442;-76
2023/04/28 09:28:33;;;;;;;4.75;3.20;;;10.80;99.90;;;;;;6160804;23;20017;-79
2023/04/28 09:30:59;;;;;;;3.30;3.10;;;11.00;99.90;;;;;;6185873;23;20013;-74
2023/04/28 09:33:25;;;;;;;3.50;3.20;;;11.10;99.90;;;;;;6185781;23;20017;-75
2023/04/28 09:35:51;;;;;;;3.05;2.85;;;11.20;99.90;;;;;;6160598;23;20017;-76
2023/04/28 09:38:19;;;;;;;3.83;3.20;;;11.30;99.90;;;;;;6160590;23;20063;-76
2023/04/28 09:41:03;;;;;;;3.05;2.85;;;11.40;99.90;;;;;;6185743;23;20016;-77
2023/04/28 09:43:33;;;;;;;3.30;3.00;;;11.40;99.90;;;;;;6185833;23;20114;-75
2023/04/28 09:46:01;;;;;;;3.35;3.00;;;11.40;99.90;;;;;;6185403;23;20473;-76
2023/04/28 09:48:29;;;;;;;3.00;2.78;;;11.40;99.90;;;;;;6185339;23;20012;-75
2023/04/28 09:50:56;;;;;;;3.88;3.10;;;11.40;99.90;;;;;;6185690;23;20044;-75
2023/04/28 09:53:26;;;;;;;3.38;3.15;;;11.50;99.90;;;;;;6185293;23;20013;-76
2023/04/28 09:55:53;;;;;;;;;;;11.50;99.90;;;;;;6186159;23;20383;-76
2023/04/28 09:58:23;;;;;;;3.55;2.92;;;11.60;99.90;;;;;;6160416;23;20294;-75
2023/04/28 10:00:56;;;;;;;3.03;2.80;;;11.70;99.90;;;;;;6185650;23;20373;-76
2023/04/28 10:03:29;;;;;;;3.63;3.30;;;11.90;99.90;;;;;;6160478;23;20071;-76
2023/04/28 10:05:56;;;;;;;3.30;3.00;;;12.10;99.90;;;;;;6186793;23;20016;-75
2023/04/28 10:08:24;;;;;;;3.22;2.83;;;12.10;99.90;;;;;;6186646;23;20016;-76
2023/04/28 10:10:53;;;;;;;3.67;3.10;;;12.20;99.90;;;;;;6185636;23;20069;-78
2023/04/28 10:13:20;;;;;;;3.50;3.20;;;12.30;99.90;;;;;;6185246;23;20013;-77
2023/04/28 10:15:47;;;;;;;3.20;3.00;;;12.40;99.90;;;;;;6184993;23;20013;-80
2023/04/28 10:18:14;;;;;;;3.30;3.00;;;12.50;99.90;;;;;;6185076;23;20048;-79
2023/04/28 10:20:46;;;;;;;3.08;2.78;;;12.50;99.90;;;;;;6185048;23;20021;-79
2023/04/28 10:23:30;;;;;;;3.00;2.80;;;12.50;99.90;;;;;;6160527;23;20465;-78
2023/04/28 10:25:58;;;;;;;3.20;2.90;;;12.60;99.90;;;;;;6186959;23;20009;-73
2023/04/28 10:28:25;;;;;;;2.95;2.75;;;12.80;99.90;;;;;;6184672;23;20017;-75
2023/04/28 10:31:11;;;;;;;2.97;2.55;;;12.90;99.90;;;;;;6160049;23;20017;-76
2023/04/28 10:33:38;;;;;;;3.92;3.08;;;13.00;99.90;;;;;;6186840;23;20088;-74
2023/04/28 10:36:05;;;;;;;3.40;2.83;;;13.10;99.90;;;;;;6184876;23;20024;-75
2023/04/28 10:38:31;;;;;;;3.15;2.80;;;13.10;99.90;;;;;;6160040;23;20013;-75
2023/04/28 10:41:01;;;;;;;2.92;2.72;;;13.20;99.90;;;;;;6185191;23;20049;-75
2023/04/28 10:43:38;;;;;;;2.90;2.70;;;13.20;99.90;;;;;;6186673;23;20013;-75
2023/04/28 10:46:08;;;;;;;2.88;2.60;;;13.30;99.90;;;;;;6185084;23;20032;-76
2023/04/28 10:48:35;;;;;;;2.90;2.70;;;13.50;99.90;;;;;;6159856;23;20454;-76
2023/04/28 10:51:08;;;;;;;3.05;2.60;;;13.50;99.90;;;;;;6184954;23;20024;-72
2023/04/28 10:56:20;;;;;;;3.17;2.83;;;13.80;99.90;;;;;;6184756;23;20045;-84
2023/04/28 10:58:56;;;;;;;2.92;2.60;;;13.80;99.90;;;;;;6159965;23;20013;-71
2023/04/28 11:01:24;;;;;;;2.60;2.40;;;13.90;99.90;;;;;;6184709;23;20013;-85
2023/04/28 11:04:06;;;;;;;3.00;2.75;;;14.00;99.90;;;;;;6184975;23;20047;-85
2023/04/28 11:06:34;;;;;;;2.83;2.63;;;13.90;99.90;;;;;;6185025;23;20020;-85
2023/04/28 11:09:31;;;;;;;2.80;2.53;;;13.90;99.90;;;;;;6186708;23;20013;-86
2023/04/28 11:12:04;;;;;;;2.70;2.50;;;13.90;99.90;;;;;;6184951;23;20017;-86
2023/04/28 11:14:32;;;;;;;3.20;2.90;;;13.90;99.90;;;;;;6160136;23;20017;-86
2023/04/28 11:17:06;;;;;;;3.00;2.75;;;13.90;99.90;;;;;;6185209;23;20048;-86
2023/04/28 11:19:38;;;;;;;2.88;2.67;;;14.00;99.90;;;;;;6185400;23;20020;-86
2023/04/28 11:22:10;;;;;;;2.70;2.50;;;14.10;99.90;;;;;;6160407;23;20013;-87
2023/04/28 11:24:36;;;;;;;2.95;2.70;;;14.20;99.90;;;;;;6135627;23;20092;-87
2023/04/28 11:27:02;;;;;;;2.78;2.50;;;14.30;99.90;;;;;;6135425;23;20112;-86
2023/04/28 11:29:39;;;;;;;3.10;2.90;;;14.40;99.90;;;;;;6135158;23;20466;-85
2023/04/28 11:32:06;;;;;;;2.88;2.63;;;14.50;99.90;;;;;;6135225;23;20415;-85
2023/04/28 11:34:33;;;;;;;3.13;2.83;;;14.60;99.90;;;;;;6135175;23;20024;-85
2023/04/28 11:36:58;;;;;;;3.00;2.40;;;14.60;99.90;;;;;;6186365;23;20013;-84
2023/04/28 11:39:30;;;;;;;2.70;2.50;;;14.60;99.90;;;;;;6159341;23;20477;-85
2023/04/28 11:41:57;;;;;;;3.08;2.75;;;14.60;99.90;;;;;;6186343;23;20059;-85
2023/04/28 11:44:26;;;;;;;3.20;2.97;;;14.50;99.90;;;;;;6186554;23;20319;-78
2023/04/28 11:46:59;;;;;;;2.47;2.27;;;14.50;99.90;;;;;;6134873;23;20020;-85
2023/04/28 11:49:45;;;;;;;2.80;2.60;;;14.30;99.90;;;;;;6134951;23;20390;-71
2023/04/28 11:52:11;;;;;;;2.90;2.70;;;14.40;99.90;;;;;;6159187;23;20016;-74
2023/04/28 11:54:38;;;;;;;3.30;2.35;;;14.40;99.90;;;;;;6159391;23;20027;-77
2023/04/28 11:57:04;;;;;;;2.90;2.67;;;14.40;99.90;;;;;;6134799;23;20043;-74
2023/04/28 11:59:34;;;;;;;3.00;2.80;;;14.40;99.90;;;;;;6134661;23;20009;-80
2023/04/28 12:02:04;;;;;;;3.20;2.90;;;14.40;99.90;;;;;;6185613;23;20450;-79
2023/04/28 12:04:43;;;;;;;2.85;2.65;;;14.30;99.90;;;;;;6185615;23;20017;-79
2023/04/28 12:07:15;;;;;;;3.20;2.80;;;14.30;99.90;;;;;;6159760;23;20362;-79
2023/04/28 12:10:08;;;;;;;2.90;2.70;;;14.30;99.90;;;;;;6135204;23;20048;-79
2023/04/28 12:12:34;;;;;;;3.00;2.72;;;14.30;99.90;;;;;;6185430;23;20096;-78
2023/04/28 12:15:05;;;;;;;2.90;2.70;;;14.20;99.90;;;;;;6159191;23;20052;-79
2023/04/28 12:17:41;;;;;;;3.03;2.70;;;14.30;99.90;;;;;;6186000;23;20096;-79
2023/04/28 12:20:07;;;;;;;3.05;2.70;;;14.30;99.90;;;;;;6162165;23;20020;-80
2023/04/28 12:22:47;;;;;;;3.33;3.03;;;14.20;99.90;;;;;;6159069;23;20021;-78
2023/04/28 12:25:15;;;;;;;;;;;14.30;99.90;;;;;;6184480;23;20009;-80
2023/04/28 12:27:57;;;;;;;2.92;2.63;;;14.30;99.90;;;;;;6184010;23;19912;-80
2023/04/28 12:30:23;;;;;;;3.08;2.88;;;14.20;99.90;;;;;;6186184;23;20052;-80
2023/04/28 12:32:49;;;;;;;3.10;2.85;;;14.10;99.90;;;;;;6159231;23;20405;-80
2023/04/28 12:35:15;;;;;;;3.05;2.70;;;14.10;99.90;;;;;;6159171;23;20053;-80
2023/04/28 12:37:44;;;;;;;3.38;3.08;;;14.00;99.90;;;;;;6183904;23;20013;-81
2023/04/28 12:40:10;;;;;;;3.08;2.88;;;14.00;99.90;;;;;;6185966;23;20096;-80
2023/04/28 12:42:36;;;;;;;3.85;3.55;;;14.00;99.90;;;;;;6159198;23;20117;-80
2023/04/28 12:45:02;;;;;;;3.03;2.83;;;14.00;99.90;;;;;;6159152;23;20442;-81
2023/04/28 12:47:28;;;;;;;3.53;3.22;;;14.10;99.90;;;;;;6158983;23;20009;-81
2023/04/28 12:49:53;;;;;;;3.90;3.60;;;14.10;99.90;;;;;;6183765;23;20088;-79
2023/04/28 12:52:20;;;;;;;3.78;3.47;;;14.10;99.90;;;;;;6185640;23;20017;-81
2023/04/28 12:54:46;;;;;;;3.75;3.45;;;14.00;99.90;;;;;;6185810;23;20017;-81
2023/04/28 12:57:12;;;;;;;3.83;3.53;;;14.00;99.90;;;;;;6185734;23;20032;-78